createdAt,value
2022-11-24T00:02:17.810Z,9.23
2022-11-24T00:04:44.391Z,8.20
2022-11-24T00:07:10.911Z,7.40
2022-11-24T00:09:37.454Z,7.70
2022-11-24T00:12:04.340Z,6.53
2022-11-24T00:14:31.052Z,7.60
2022-11-24T00:16:57.739Z,7.10
2022-11-24T00:19:24.310Z,9.30
2022-11-24T00:21:50.803Z,11.88
2022-11-24T00:24:17.315Z,8.68
2022-11-24T00:26:43.793Z,10.38
2022-11-24T00:29:11.365Z,10.23
2022-11-24T00:31:41.255Z,10.20
2022-11-24T00:34:11.280Z,7.25
2022-11-24T00:36:38.366Z,8.73
2022-11-24T00:39:15.823Z,12.30
2022-11-24T00:41:42.863Z,13.15
2022-11-24T00:44:09.418Z,9.05
2022-11-24T00:46:36.006Z,12.70
2022-11-24T00:49:03.047Z,10.30
2022-11-24T00:51:30.108Z,11.20
2022-11-24T00:53:57.573Z,8.80
2022-11-24T00:56:25.064Z,8.65
2022-11-24T00:58:51.950Z,9.88
2022-11-24T01:01:23.800Z,5.35
2022-11-24T01:03:50.890Z,6.32
2022-11-24T01:06:22.943Z,8.50
2022-11-24T01:08:49.502Z,6.55
2022-11-24T01:11:30.286Z,7.90
2022-11-24T01:13:58.931Z,6.50
2022-11-24T01:16:30.395Z,9.32
2022-11-24T01:18:57.022Z,11.90
2022-11-24T01:21:23.883Z,8.20
2022-11-24T01:23:50.827Z,8.68
2022-11-24T01:26:20.290Z,8.43
2022-11-24T01:28:47.942Z,7.40
2022-11-24T01:31:15.300Z,9.65
2022-11-24T01:33:41.899Z,5.15
2022-11-24T01:36:08.439Z,9.05
2022-11-24T01:38:35.030Z,7.97
2022-11-24T01:41:03.555Z,5.70
2022-11-24T01:43:30.094Z,6.70
2022-11-24T01:45:57.133Z,8.00
2022-11-24T01:48:28.855Z,7.55
2022-11-24T01:51:10.033Z,6.90
2022-11-24T01:53:37.151Z,8.23
2022-11-24T01:56:04.344Z,7.00
2022-11-24T01:58:32.462Z,6.75
2022-11-24T02:00:59.305Z,12.93
2022-11-24T02:03:30.423Z,9.63
2022-11-24T02:06:02.467Z,10.35
2022-11-24T02:08:42.823Z,10.45
2022-11-24T02:13:37.361Z,7.18
2022-11-24T02:16:06.643Z,9.10
2022-11-24T02:18:33.383Z,11.43
2022-11-24T02:21:01.226Z,7.07
2022-11-24T02:23:35.560Z,11.00
2022-11-24T02:26:26.809Z,10.55
2022-11-24T02:28:53.694Z,7.53
2022-11-24T02:31:20.312Z,10.25
2022-11-24T02:33:48.952Z,7.90
2022-11-24T02:36:15.931Z,14.13
2022-11-24T02:38:42.483Z,8.45
2022-11-24T02:41:18.067Z,9.45
2022-11-24T02:43:55.067Z,12.45
2022-11-24T02:46:22.154Z,12.10
2022-11-24T02:48:48.783Z,11.63
2022-11-24T02:51:15.498Z,11.85
2022-11-24T02:53:41.987Z,10.30
2022-11-24T02:56:08.552Z,6.68
2022-11-24T02:58:35.546Z,10.80
2022-11-24T03:01:02.692Z,10.95
2022-11-24T03:03:29.343Z,10.23
2022-11-24T03:05:55.883Z,12.23
2022-11-24T03:08:22.399Z,6.47
2022-11-24T03:10:48.929Z,7.95
2022-11-24T03:13:15.427Z,10.82
2022-11-24T03:15:42.013Z,10.18
2022-11-24T03:18:08.531Z,7.55
2022-11-24T03:20:35.051Z,10.50
2022-11-24T03:23:01.574Z,13.48
2022-11-24T03:25:28.063Z,10.52
2022-11-24T03:27:56.463Z,9.18
2022-11-24T03:30:22.958Z,6.88
2022-11-24T03:32:51.600Z,10.23
2022-11-24T03:35:18.148Z,9.60
2022-11-24T03:37:44.650Z,10.45
2022-11-24T03:40:11.460Z,7.43
2022-11-24T03:42:37.954Z,8.27
2022-11-24T03:45:29.889Z,7.20
2022-11-24T03:47:51.521Z,9.48
2022-11-24T03:50:18.119Z,13.00
2022-11-24T03:52:44.568Z,9.20
2022-11-24T03:55:11.049Z,10.27
2022-11-24T03:57:37.515Z,7.70
2022-11-24T04:00:04.408Z,9.75
2022-11-24T04:02:30.936Z,7.72
2022-11-24T04:04:57.469Z,7.40
2022-11-24T04:07:24.026Z,9.80
2022-11-24T04:09:50.573Z,12.70
2022-11-24T04:12:17.076Z,8.27
2022-11-24T04:14:51.781Z,13.27
2022-11-24T04:17:18.812Z,9.88
2022-11-24T04:19:45.292Z,8.02
2022-11-24T04:22:11.784Z,9.52
2022-11-24T04:24:38.300Z,9.75
2022-11-24T04:27:04.816Z,13.48
2022-11-24T04:29:31.291Z,11.43
2022-11-24T04:31:57.794Z,10.95
2022-11-24T04:34:24.282Z,11.88
2022-11-24T04:36:50.770Z,9.48
2022-11-24T04:39:25.874Z,9.70
2022-11-24T04:41:53.175Z,6.28
2022-11-24T04:44:19.879Z,9.77
2022-11-24T04:46:46.430Z,8.40
2022-11-24T04:49:12.938Z,8.52
2022-11-24T04:51:39.834Z,8.77
2022-11-24T04:54:13.645Z,7.53
2022-11-24T04:56:41.199Z,7.43
2022-11-24T04:59:08.767Z,9.98
2022-11-24T05:01:35.703Z,10.23
2022-11-24T05:04:02.286Z,9.30
2022-11-24T05:06:28.821Z,9.35
2022-11-24T05:08:55.459Z,11.13
2022-11-24T05:11:22.044Z,8.23
2022-11-24T05:13:48.491Z,9.52
2022-11-24T05:16:15.084Z,9.88
2022-11-24T05:18:41.705Z,8.35
2022-11-24T05:21:08.186Z,10.88
2022-11-24T05:23:34.682Z,9.15
2022-11-24T05:26:01.478Z,9.35
2022-11-24T05:28:28.743Z,8.68
2022-11-24T05:30:58.960Z,9.05
2022-11-24T05:33:25.443Z,10.80
2022-11-24T05:35:53.267Z,13.60
2022-11-24T05:38:19.992Z,7.78
2022-11-24T05:40:46.777Z,11.52
2022-11-24T05:43:15.080Z,13.18
2022-11-24T05:45:41.769Z,12.98
2022-11-24T05:48:10.735Z,8.90
2022-11-24T05:50:37.243Z,7.97
2022-11-24T05:53:12.222Z,9.82
2022-11-24T05:55:40.071Z,6.82
2022-11-24T05:58:08.487Z,8.15
2022-11-24T06:00:35.938Z,6.70
2022-11-24T06:03:02.565Z,15.10
2022-11-24T06:05:29.348Z,10.32
2022-11-24T06:07:56.306Z,10.60
2022-11-24T06:10:23.467Z,14.55
2022-11-24T06:12:50.383Z,10.88
2022-11-24T06:15:16.922Z,11.27
2022-11-24T06:17:43.575Z,9.10
2022-11-24T06:20:10.943Z,10.88
2022-11-24T06:22:37.562Z,11.43
2022-11-24T06:25:04.637Z,12.52
2022-11-24T06:27:31.123Z,12.23
2022-11-24T06:29:57.627Z,11.65
2022-11-24T06:32:24.138Z,15.25
2022-11-24T06:34:50.615Z,10.85
2022-11-24T06:37:17.075Z,10.20
2022-11-24T06:39:43.565Z,8.68
2022-11-24T06:42:10.146Z,13.95
2022-11-24T06:44:36.739Z,11.63
2022-11-24T06:47:03.334Z,8.43
2022-11-24T06:49:29.890Z,7.88
2022-11-24T06:51:56.355Z,12.00
2022-11-24T06:54:22.971Z,11.88
2022-11-24T06:56:49.633Z,12.65
2022-11-24T06:59:18.562Z,10.30
2022-11-24T07:01:45.122Z,9.23
2022-11-24T07:04:11.602Z,9.90
2022-11-24T07:06:38.114Z,11.15
2022-11-24T07:09:04.592Z,9.65
2022-11-24T07:11:31.054Z,10.57
2022-11-24T07:14:00.128Z,8.27
2022-11-24T07:16:27.981Z,9.98
2022-11-24T07:18:55.094Z,11.05
2022-11-24T07:21:22.911Z,11.30
2022-11-24T07:23:50.138Z,12.05
2022-11-24T07:26:17.715Z,11.90
2022-11-24T07:28:44.737Z,9.82
2022-11-24T07:31:13.250Z,6.82
2022-11-24T07:33:40.203Z,13.38
2022-11-24T07:36:07.730Z,7.93
2022-11-24T07:38:34.896Z,11.88
2022-11-24T07:41:01.712Z,11.00
2022-11-24T07:43:30.382Z,10.40
2022-11-24T07:45:56.879Z,7.65
2022-11-24T07:48:23.499Z,9.48
2022-11-24T07:50:55.501Z,7.82
2022-11-24T07:53:22.733Z,8.38
2022-11-24T07:55:56.375Z,7.30
2022-11-24T07:58:23.261Z,7.18
2022-11-24T08:00:49.911Z,10.00
2022-11-24T08:03:16.551Z,9.23
2022-11-24T08:06:07.958Z,8.70
2022-11-24T08:08:31.022Z,8.20
2022-11-24T08:10:57.581Z,10.52
2022-11-24T08:13:24.083Z,8.00
2022-11-24T08:15:50.567Z,11.10
2022-11-24T08:18:17.152Z,10.15
2022-11-24T08:20:45.217Z,10.23
2022-11-24T08:23:14.956Z,8.57
2022-11-24T08:25:41.706Z,8.60
2022-11-24T08:28:08.363Z,7.80
2022-11-24T08:30:34.888Z,8.23
2022-11-24T08:33:01.439Z,9.07
2022-11-24T08:35:28.074Z,9.30
2022-11-24T08:37:54.788Z,10.18
2022-11-24T08:40:23.441Z,11.57
2022-11-24T08:42:49.960Z,6.70
2022-11-24T08:45:20.758Z,10.15
2022-11-24T08:47:52.153Z,6.95
2022-11-24T08:50:18.704Z,6.57
2022-11-24T08:52:45.196Z,8.23
2022-11-24T08:55:11.666Z,7.25
2022-11-24T08:57:38.144Z,7.63
2022-11-24T09:00:05.767Z,6.90
2022-11-24T09:02:32.536Z,9.20
2022-11-24T09:04:58.989Z,10.65
2022-11-24T09:07:25.547Z,7.45
2022-11-24T09:09:52.100Z,7.60
2022-11-24T09:12:18.571Z,5.57
2022-11-24T09:14:45.122Z,7.68
2022-11-24T09:17:11.715Z,8.35
2022-11-24T09:19:42.464Z,4.03
2022-11-24T09:22:09.123Z,9.20
2022-11-24T09:24:35.620Z,10.23
2022-11-24T09:27:03.372Z,8.65
2022-11-24T09:29:29.863Z,5.75
2022-11-24T09:31:57.305Z,7.32
2022-11-24T09:34:26.133Z,8.15
2022-11-24T09:36:53.770Z,5.05
2022-11-24T09:39:20.271Z,9.73
2022-11-24T09:42:06.689Z,5.82
2022-11-24T09:44:52.551Z,9.52
2022-11-24T09:47:33.249Z,6.15
2022-11-24T09:50:04.111Z,8.15
2022-11-24T09:52:40.186Z,6.75
2022-11-24T09:55:42.512Z,7.65
2022-11-24T09:58:27.563Z,7.05
2022-11-24T10:00:55.902Z,8.70
2022-11-24T10:03:46.577Z,8.93
2022-11-24T10:06:39.233Z,7.18
2022-11-24T10:09:17.763Z,4.90
2022-11-24T10:11:51.544Z,8.85
2022-11-24T10:14:21.078Z,6.22
2022-11-24T10:17:07.838Z,9.07
2022-11-24T10:19:48.759Z,5.93
2022-11-24T10:22:28.162Z,6.05
2022-11-24T10:25:00.358Z,6.47
2022-11-24T10:27:33.570Z,7.65
2022-11-24T10:30:00.502Z,7.07
2022-11-24T10:32:32.205Z,7.65
2022-11-24T10:35:00.820Z,5.53
2022-11-24T10:37:37.037Z,8.70
2022-11-24T10:40:48.656Z,5.75
2022-11-24T10:43:11.846Z,7.57
2022-11-24T10:45:39.121Z,6.63
2022-11-24T10:48:10.947Z,7.32
2022-11-24T10:50:41.076Z,7.85
2022-11-24T10:55:54.495Z,5.68
2022-11-24T10:58:37.655Z,6.70
2022-11-24T11:01:13.479Z,8.88
2022-11-24T11:03:51.786Z,7.75
2022-11-24T11:06:26.414Z,8.40
2022-11-24T11:09:08.205Z,5.40
2022-11-24T11:11:38.963Z,7.28
2022-11-24T11:14:06.973Z,7.32
2022-11-24T11:16:40.448Z,10.77
2022-11-24T11:19:50.912Z,6.50
2022-11-24T11:22:29.188Z,7.75
2022-11-24T11:25:10.988Z,5.32
2022-11-24T11:27:39.336Z,6.00
2022-11-24T11:36:10.055Z,6.85
2022-11-24T11:38:38.658Z,6.93
2022-11-24T11:41:05.937Z,6.95
2022-11-24T11:43:35.090Z,6.78
2022-11-24T11:46:15.020Z,6.13
2022-11-24T11:48:44.516Z,7.60
2022-11-24T11:51:33.533Z,5.97
2022-11-24T11:54:23.125Z,6.57
2022-11-24T11:57:11.668Z,8.23
2022-11-24T12:00:18.100Z,8.10
2022-11-24T12:03:08.804Z,9.80
2022-11-24T12:05:47.604Z,12.32
2022-11-24T12:08:56.039Z,11.60
2022-11-24T12:11:51.104Z,7.68
2022-11-24T12:14:39.319Z,6.47
2022-11-24T12:17:29.512Z,6.75
2022-11-24T12:20:17.755Z,10.70
2022-11-24T12:22:52.506Z,8.95
2022-11-24T12:25:39.395Z,8.50
2022-11-24T12:28:32.979Z,7.18
2022-11-24T12:31:30.976Z,4.88
2022-11-24T12:34:01.845Z,6.55
2022-11-24T12:37:06.019Z,6.72
2022-11-24T12:39:40.895Z,9.95
2022-11-24T12:42:30.301Z,8.27
2022-11-24T12:45:04.076Z,5.63
2022-11-24T12:47:49.641Z,8.30
2022-11-24T12:50:19.381Z,10.10
2022-11-24T12:52:58.608Z,6.97
2022-11-24T12:55:27.003Z,11.75
2022-11-24T12:58:10.964Z,8.70
2022-11-24T13:01:15.916Z,10.65
2022-11-24T13:04:05.443Z,9.38
2022-11-24T13:06:47.458Z,8.48
2022-11-24T13:09:15.791Z,7.45
2022-11-24T13:11:45.705Z,5.80
2022-11-24T13:14:15.167Z,9.00
2022-11-24T13:17:21.223Z,11.70
2022-11-24T13:19:38.204Z,11.07
2022-11-24T13:22:07.738Z,5.65
2022-11-24T13:24:36.361Z,9.02
2022-11-24T13:27:15.491Z,6.78
2022-11-24T13:29:46.226Z,10.27
2022-11-24T13:32:12.595Z,8.05
2022-11-24T13:34:39.014Z,5.63
2022-11-24T13:37:35.278Z,10.27
2022-11-24T13:40:31.226Z,7.03
2022-11-24T13:42:57.781Z,7.43
2022-11-24T13:45:39.932Z,8.30
2022-11-24T13:48:18.942Z,9.77
2022-11-24T13:50:51.620Z,8.73
2022-11-24T13:53:42.461Z,9.93
2022-11-24T13:56:22.699Z,7.32
2022-11-24T14:01:25.801Z,8.82
2022-11-24T14:07:00.117Z,9.73
2022-11-24T14:09:52.362Z,9.40
2022-11-24T14:12:20.407Z,13.05
2022-11-24T14:14:51.488Z,7.15
2022-11-24T14:17:22.003Z,9.20
2022-11-24T14:19:50.418Z,8.07
2022-11-24T14:22:22.680Z,9.20
2022-11-24T14:24:57.004Z,9.00
2022-11-24T14:27:32.674Z,8.50
2022-11-24T14:30:17.013Z,8.77
2022-11-24T14:33:00.653Z,7.18
2022-11-24T14:35:32.479Z,7.47
2022-11-24T14:38:01.228Z,10.43
2022-11-24T14:40:47.116Z,12.50
2022-11-24T14:43:21.449Z,8.02
2022-11-24T14:45:55.267Z,9.43
2022-11-24T14:48:27.815Z,13.02
2022-11-24T14:51:14.021Z,9.40
2022-11-24T14:53:44.887Z,11.63
2022-11-24T14:56:23.633Z,12.57
2022-11-24T14:58:50.403Z,8.32
2022-11-24T15:01:37.427Z,10.02
2022-11-24T15:04:46.256Z,10.80
2022-11-24T15:07:25.669Z,8.43
2022-11-24T15:09:58.358Z,6.13
2022-11-24T15:12:27.984Z,9.18
2022-11-24T15:14:58.031Z,8.40
2022-11-24T15:17:27.164Z,11.23
2022-11-24T15:20:16.837Z,8.60
2022-11-24T15:22:46.287Z,8.48
2022-11-24T15:25:35.538Z,7.97
2022-11-24T15:28:04.807Z,8.02
2022-11-24T15:30:34.398Z,5.53
2022-11-24T15:33:01.035Z,11.18
2022-11-24T15:35:34.424Z,21.27
2022-11-24T15:38:00.973Z,21.58
2022-11-24T15:40:27.507Z,19.88
2022-11-24T15:42:55.241Z,18.38
2022-11-24T15:45:23.550Z,17.35
2022-11-24T15:47:50.355Z,15.80
2022-11-24T15:50:16.983Z,11.13
2022-11-24T15:52:44.130Z,10.75
2022-11-24T15:55:21.513Z,13.50
2022-11-24T15:57:48.626Z,10.27
2022-11-24T16:00:20.441Z,8.45
2022-11-24T16:02:47.195Z,11.90
2022-11-24T16:05:14.579Z,10.88
2022-11-24T16:07:41.608Z,8.93
2022-11-24T16:10:23.939Z,10.40
2022-11-24T16:12:50.496Z,7.90
2022-11-24T16:15:17.236Z,12.00
2022-11-24T16:17:44.124Z,9.02
2022-11-24T16:20:13.869Z,13.18
2022-11-24T16:22:40.586Z,16.58
2022-11-24T16:25:07.612Z,16.30
2022-11-24T16:27:34.310Z,16.17
2022-11-24T16:30:05.043Z,8.98
2022-11-24T16:32:31.636Z,8.10
2022-11-24T16:34:58.170Z,7.78
2022-11-24T16:37:24.698Z,8.43
2022-11-24T16:39:51.168Z,11.52
2022-11-24T16:42:17.644Z,7.18
2022-11-24T16:44:44.280Z,9.15
2022-11-24T16:47:10.774Z,9.07
2022-11-24T16:49:37.231Z,17.00
2022-11-24T16:52:03.766Z,13.40
2022-11-24T16:54:32.889Z,8.35
2022-11-24T16:56:59.638Z,12.05
2022-11-24T16:59:26.115Z,11.48
2022-11-24T17:01:52.685Z,10.88
2022-11-24T17:04:19.364Z,20.10
2022-11-24T17:06:45.848Z,24.63
2022-11-24T17:09:12.327Z,18.90
2022-11-24T17:11:38.784Z,22.15
2022-11-24T17:14:05.476Z,29.40
2022-11-24T17:16:32.019Z,22.00
2022-11-24T17:18:58.615Z,13.95
2022-11-24T17:21:26.779Z,17.50
2022-11-24T17:23:57.810Z,16.05
2022-11-24T17:26:24.898Z,8.50
2022-11-24T17:28:51.526Z,13.68
2022-11-24T17:31:22.486Z,14.98
2022-11-24T17:33:53.184Z,15.48
2022-11-24T17:36:20.630Z,10.40
2022-11-24T17:38:47.594Z,9.23
2022-11-24T17:41:14.034Z,13.20
2022-11-24T17:43:40.528Z,12.70
2022-11-24T17:46:07.397Z,9.57
2022-11-24T17:48:35.196Z,8.68
2022-11-24T17:51:03.995Z,7.70
2022-11-24T17:53:30.997Z,9.05
2022-11-24T17:56:01.410Z,10.95
2022-11-24T17:58:29.009Z,9.50
2022-11-24T18:00:55.652Z,9.25
2022-11-24T18:03:22.270Z,7.30
2022-11-24T18:05:48.772Z,11.05
2022-11-24T18:08:15.252Z,10.65
2022-11-24T18:10:41.756Z,13.65
2022-11-24T18:13:08.304Z,9.27
2022-11-24T18:15:36.285Z,17.90
2022-11-24T18:18:02.890Z,9.57
2022-11-24T18:20:29.406Z,45.45
2022-11-24T18:23:05.657Z,43.38
2022-11-24T18:25:32.675Z,18.15
2022-11-24T18:27:59.186Z,13.15
2022-11-24T18:30:25.666Z,8.07
2022-11-24T18:32:52.114Z,12.80
2022-11-24T18:35:18.676Z,13.93
2022-11-24T18:37:47.704Z,12.57
2022-11-24T18:40:14.396Z,14.82
2022-11-24T18:42:40.895Z,10.13
2022-11-24T18:45:07.851Z,11.18
2022-11-24T18:47:34.346Z,14.25
2022-11-24T18:50:00.791Z,11.23
2022-11-24T18:52:27.276Z,16.92
2022-11-24T18:54:53.759Z,9.98
2022-11-24T18:57:20.223Z,5.72
2022-11-24T18:59:46.703Z,10.82
2022-11-24T19:02:13.244Z,10.57
2022-11-24T19:04:44.885Z,6.68
2022-11-24T19:07:11.455Z,5.63
2022-11-24T19:09:37.957Z,11.80
2022-11-24T19:12:04.520Z,8.13
2022-11-24T19:14:31.011Z,12.57
2022-11-24T19:17:00.897Z,26.73
2022-11-24T19:19:29.664Z,13.75
2022-11-24T19:21:56.146Z,14.13
2022-11-24T19:24:22.619Z,10.77
2022-11-24T19:26:49.124Z,13.65
2022-11-24T19:29:15.582Z,16.30
2022-11-24T19:31:42.086Z,38.20
2022-11-24T19:34:11.215Z,38.00
2022-11-24T19:36:40.045Z,14.23
2022-11-24T19:39:07.132Z,22.30
2022-11-24T19:41:33.735Z,11.25
2022-11-24T19:44:00.538Z,7.20
2022-11-24T19:46:28.832Z,16.48
2022-11-24T19:48:56.436Z,11.32
2022-11-24T19:51:25.921Z,7.35
2022-11-24T19:53:53.020Z,4.75
2022-11-24T19:56:24.360Z,8.55
2022-11-24T19:58:51.783Z,12.88
2022-11-24T20:01:28.252Z,9.13
2022-11-24T20:04:00.478Z,9.65
2022-11-24T20:06:33.844Z,11.88
2022-11-24T20:09:01.068Z,14.38
2022-11-24T20:11:28.323Z,7.18
2022-11-24T20:13:56.167Z,12.23
2022-11-24T20:16:26.412Z,17.05
2022-11-24T20:21:21.851Z,9.65
2022-11-24T20:23:58.326Z,13.05
2022-11-24T20:26:27.224Z,35.67
2022-11-24T20:28:55.536Z,25.13
2022-11-24T20:31:25.215Z,36.83
2022-11-24T20:33:51.928Z,23.17
2022-11-24T20:36:26.131Z,9.52
2022-11-24T20:38:53.282Z,10.40
2022-11-24T20:41:22.485Z,10.43
2022-11-24T20:43:49.691Z,8.80
2022-11-24T20:46:20.992Z,8.90
2022-11-24T20:48:49.027Z,10.63
2022-11-24T20:51:18.735Z,14.93
2022-11-24T20:53:45.253Z,14.30
2022-11-24T20:56:15.070Z,5.88
2022-11-24T20:58:42.220Z,6.63
2022-11-24T21:01:11.850Z,13.93
2022-11-24T21:03:43.023Z,7.88
2022-11-24T21:06:11.166Z,18.98
2022-11-24T21:08:38.699Z,17.27
2022-11-24T21:11:06.196Z,31.45
2022-11-24T21:13:34.434Z,12.27
2022-11-24T21:16:06.588Z,7.80
2022-11-24T21:18:33.741Z,8.45
2022-11-24T21:21:00.384Z,9.65
2022-11-24T21:23:26.842Z,5.95
2022-11-24T21:25:53.367Z,6.57
2022-11-24T21:28:19.874Z,6.40
2022-11-24T21:30:46.392Z,8.38
2022-11-24T21:33:12.868Z,4.80
2022-11-24T21:35:39.397Z,4.00
2022-11-24T21:38:05.875Z,7.40
2022-11-24T21:40:32.335Z,5.78
2022-11-24T21:42:59.018Z,8.75
2022-11-24T21:45:26.231Z,6.63
2022-11-24T21:47:52.779Z,5.28
2022-11-24T21:50:19.245Z,9.15
2022-11-24T21:52:45.797Z,6.47
2022-11-24T21:55:12.359Z,7.35
2022-11-24T21:57:38.827Z,8.13
2022-11-24T22:00:06.558Z,7.25
2022-11-24T22:02:33.167Z,6.60
2022-11-24T22:04:59.700Z,5.32
2022-11-24T22:07:30.888Z,5.07
2022-11-24T22:09:59.814Z,7.13
2022-11-24T22:12:26.315Z,6.05
2022-11-24T22:14:52.790Z,15.10
2022-11-24T22:17:19.369Z,9.27
2022-11-24T22:19:45.817Z,7.13
2022-11-24T22:22:12.327Z,5.60
2022-11-24T22:24:39.120Z,5.15
2022-11-24T22:27:05.741Z,5.13
2022-11-24T22:29:32.226Z,4.60
2022-11-24T22:31:58.795Z,7.55
2022-11-24T22:34:25.308Z,4.78
2022-11-24T22:36:51.777Z,6.57
2022-11-24T22:39:18.259Z,3.92
2022-11-24T22:41:45.012Z,6.28
2022-11-24T22:44:11.506Z,5.32
2022-11-24T22:46:37.983Z,4.95
2022-11-24T22:49:04.514Z,4.72
2022-11-24T22:51:33.229Z,6.22
2022-11-24T22:54:04.035Z,5.28
2022-11-24T22:56:30.739Z,6.40
2022-11-24T22:58:57.755Z,5.07
2022-11-24T23:01:25.223Z,6.70
2022-11-24T23:03:52.771Z,3.95
2022-11-24T23:06:21.806Z,7.38
2022-11-24T23:08:49.311Z,4.43
2022-11-24T23:11:36.586Z,3.42
2022-11-24T23:14:04.347Z,2.88
2022-11-24T23:16:31.166Z,5.45
2022-11-24T23:18:57.966Z,4.85
2022-11-24T23:21:27.208Z,6.28
2022-11-24T23:23:54.651Z,7.03
2022-11-24T23:26:24.038Z,4.10
2022-11-24T23:28:50.604Z,5.50
2022-11-24T23:31:20.600Z,7.93
2022-11-24T23:33:47.494Z,7.95
2022-11-24T23:36:16.406Z,6.13
2022-11-24T23:38:46.044Z,9.93
2022-11-24T23:41:15.096Z,5.57
2022-11-24T23:43:42.339Z,9.40
2022-11-24T23:46:10.912Z,6.45
2022-11-24T23:48:37.744Z,6.75
2022-11-24T23:51:12.670Z,5.03
2022-11-24T23:53:39.564Z,5.20
2022-11-24T23:56:06.529Z,5.63
2022-11-24T23:58:33.563Z,8.88
